createdAt,value
2023-02-11T00:04:03.840Z,92.57
2023-02-11T00:08:08.112Z,89.28
2023-02-11T00:12:10.238Z,93.29
2023-02-11T00:16:14.471Z,96.14
2023-02-11T00:20:16.506Z,95.61
2023-02-11T00:24:18.674Z,94.86
2023-02-11T00:28:20.819Z,84.65
2023-02-11T00:32:22.830Z,81.04
2023-02-11T00:36:27.456Z,92.27
2023-02-11T00:40:29.397Z,89.00
2023-02-11T00:44:31.427Z,90.65
2023-02-11T00:48:33.751Z,92.73
2023-02-11T00:52:36.068Z,92.21
2023-02-11T00:56:38.337Z,87.51
2023-02-11T01:00:40.390Z,92.71
2023-02-11T01:04:43.334Z,98.75
2023-02-11T01:08:45.516Z,99.75
2023-02-11T01:12:48.093Z,97.83
2023-02-11T01:16:50.336Z,93.98
2023-02-11T01:20:52.965Z,95.32
2023-02-11T01:24:55.814Z,98.42
2023-02-11T01:29:00.200Z,98.34
2023-02-11T01:33:02.886Z,100.00
2023-02-11T01:37:05.207Z,100.00
2023-02-11T01:41:09.740Z,100.00
2023-02-11T01:45:30.393Z,100.00
2023-02-11T01:49:42.804Z,98.19
2023-02-11T01:54:04.441Z,99.41
2023-02-11T01:58:06.765Z,100.00
2023-02-11T02:02:12.010Z,100.00
2023-02-11T02:06:23.032Z,100.00
2023-02-11T02:10:26.671Z,100.00
2023-02-11T02:14:29.853Z,100.00
2023-02-11T02:18:51.233Z,100.00
2023-02-11T02:23:02.861Z,100.00
2023-02-11T02:27:14.126Z,100.00
2023-02-11T02:31:34.560Z,100.00
2023-02-11T02:35:48.511Z,100.00
2023-02-11T02:39:50.890Z,100.00
2023-02-11T02:43:53.637Z,100.00
2023-02-11T02:47:55.715Z,100.00
2023-02-11T02:51:58.189Z,100.00
2023-02-11T02:56:19.115Z,100.00
2023-02-11T03:00:32.333Z,100.00
2023-02-11T03:04:49.258Z,100.00
2023-02-11T03:09:01.031Z,100.00
2023-02-11T03:13:06.108Z,100.00
2023-02-11T03:17:08.789Z,100.00
2023-02-11T03:21:11.270Z,100.00
2023-02-11T03:25:13.772Z,100.00
2023-02-11T03:29:31.256Z,100.00
2023-02-11T03:33:54.894Z,100.00
2023-02-11T03:37:59.806Z,100.00
2023-02-11T03:42:03.007Z,100.00
2023-02-11T03:46:05.581Z,100.00
2023-02-11T03:50:10.231Z,100.00
2023-02-11T03:54:15.078Z,100.00
2023-02-11T03:58:17.313Z,100.00
2023-02-11T04:02:19.779Z,100.00
2023-02-11T04:06:21.822Z,100.00
2023-02-11T04:10:23.947Z,100.00
2023-02-11T04:14:25.946Z,100.00
2023-02-11T04:18:27.998Z,100.00
2023-02-11T04:22:30.415Z,100.00
2023-02-11T04:26:32.866Z,100.00
2023-02-11T04:30:35.117Z,100.00
2023-02-11T04:34:37.600Z,100.00
2023-02-11T04:38:39.634Z,100.00
2023-02-11T04:42:41.651Z,100.00
2023-02-11T04:46:43.690Z,100.00
2023-02-11T04:50:45.775Z,100.00
2023-02-11T04:54:54.168Z,100.00
2023-02-11T04:58:57.345Z,100.00
2023-02-11T05:02:59.332Z,100.00
2023-02-11T05:07:01.256Z,100.00
2023-02-11T05:11:03.539Z,100.00
2023-02-11T05:15:05.721Z,100.00
2023-02-11T05:19:07.697Z,100.00
2023-02-11T05:23:10.059Z,100.00
2023-02-11T05:27:12.040Z,100.00
2023-02-11T05:31:15.006Z,100.00
2023-02-11T05:35:17.885Z,100.00
2023-02-11T05:39:19.807Z,100.00
2023-02-11T05:43:22.202Z,100.00
2023-02-11T05:47:24.219Z,100.00
2023-02-11T05:51:26.362Z,100.00
2023-02-11T05:55:28.424Z,100.00
2023-02-11T05:59:30.500Z,100.00
2023-02-11T06:03:32.751Z,100.00
2023-02-11T06:07:34.801Z,100.00
2023-02-11T06:11:36.861Z,100.00
2023-02-11T06:15:52.965Z,100.00
2023-02-11T06:19:55.227Z,100.00
2023-02-11T06:23:57.362Z,100.00
2023-02-11T06:33:36.606Z,100.00
2023-02-11T06:37:38.785Z,100.00
2023-02-11T06:41:41.108Z,100.00
2023-02-11T06:45:43.482Z,100.00
2023-02-11T06:49:45.996Z,100.00
2023-02-11T06:53:48.272Z,100.00
2023-02-11T06:57:50.424Z,100.00
2023-02-11T07:01:52.508Z,100.00
2023-02-11T07:05:54.562Z,100.00
2023-02-11T07:09:56.987Z,100.00
2023-02-11T07:14:08.553Z,100.00
2023-02-11T07:18:12.471Z,100.00
2023-02-11T07:22:16.100Z,100.00
2023-02-11T07:26:19.826Z,100.00
2023-02-11T07:30:22.276Z,100.00
2023-02-11T07:34:25.080Z,100.00
2023-02-11T07:38:27.346Z,100.00
2023-02-11T07:42:29.417Z,100.00
2023-02-11T07:46:32.357Z,100.00
2023-02-11T07:50:34.454Z,100.00
2023-02-11T07:54:37.158Z,100.00
2023-02-11T07:58:42.631Z,100.00
2023-02-11T08:02:44.807Z,99.00
2023-02-11T08:06:46.871Z,94.07
2023-02-11T08:10:49.140Z,90.26
2023-02-11T08:14:51.684Z,87.02
2023-02-11T08:18:55.565Z,85.20
2023-02-11T08:22:57.550Z,83.98
2023-02-11T08:26:59.551Z,88.30
2023-02-11T08:31:05.282Z,82.49
2023-02-11T08:35:08.151Z,78.58
2023-02-11T08:39:21.120Z,75.87
2023-02-11T08:43:23.751Z,72.24
2023-02-11T08:47:25.887Z,68.15
2023-02-11T08:51:31.559Z,65.60
2023-02-11T08:55:33.773Z,67.94
2023-02-11T08:59:35.898Z,73.35
2023-02-11T09:03:38.194Z,69.05
2023-02-11T09:07:40.140Z,64.36
2023-02-11T09:11:42.960Z,62.31
2023-02-11T09:15:45.888Z,63.22
2023-02-11T09:19:47.969Z,62.48
2023-02-11T09:23:50.080Z,59.51
2023-02-11T09:27:53.904Z,59.55
2023-02-11T09:31:56.069Z,57.78
2023-02-11T09:36:00.285Z,56.83
2023-02-11T09:40:02.469Z,53.36
2023-02-11T09:44:06.114Z,51.19
2023-02-11T09:48:16.442Z,49.57
2023-02-11T09:52:32.465Z,46.31
2023-02-11T09:56:34.614Z,46.83
2023-02-11T10:00:54.273Z,45.07
2023-02-11T10:05:10.886Z,42.26
2023-02-11T10:09:23.202Z,42.31
2023-02-11T10:13:43.527Z,41.35
2023-02-11T10:17:46.647Z,38.73
2023-02-11T10:21:50.680Z,39.09
2023-02-11T10:25:54.766Z,38.78
2023-02-11T10:30:06.923Z,38.39
2023-02-11T10:34:14.283Z,37.75
2023-02-11T10:38:16.340Z,36.49
2023-02-11T10:42:18.571Z,36.44
2023-02-11T10:46:27.200Z,36.06
2023-02-11T10:50:30.850Z,35.73
2023-02-11T10:54:33.075Z,34.79
2023-02-11T10:58:40.906Z,33.67
2023-02-11T11:02:44.710Z,33.95
2023-02-11T11:06:46.939Z,33.62
2023-02-11T11:11:03.824Z,34.32
2023-02-11T11:15:09.994Z,33.48
2023-02-11T11:19:21.284Z,34.69
2023-02-11T11:23:24.876Z,32.70
2023-02-11T11:27:27.078Z,32.61
2023-02-11T11:31:31.990Z,33.96
2023-02-11T11:35:34.261Z,33.18
2023-02-11T11:39:36.529Z,30.53
2023-02-11T11:43:38.716Z,31.28
2023-02-11T11:47:43.973Z,33.41
2023-02-11T11:51:52.037Z,32.47
2023-02-11T11:56:00.336Z,33.08
2023-02-11T12:00:02.450Z,31.25
2023-02-11T12:04:26.852Z,30.85
2023-02-11T12:08:34.853Z,29.59
2023-02-11T12:12:55.599Z,27.65
2023-02-11T12:17:02.631Z,27.79
2023-02-11T12:21:23.102Z,28.58
2023-02-11T12:25:25.156Z,26.52
2023-02-11T12:29:27.150Z,28.17
2023-02-11T12:33:29.300Z,27.36
2023-02-11T12:37:41.939Z,27.37
2023-02-11T12:42:05.710Z,25.85
2023-02-11T12:46:21.269Z,26.11
2023-02-11T12:50:23.395Z,24.20
2023-02-11T12:54:25.800Z,24.49
2023-02-11T12:58:44.031Z,24.57
2023-02-11T13:03:04.682Z,23.89
2023-02-11T13:07:19.527Z,20.65
2023-02-11T13:11:26.269Z,20.17
2023-02-11T13:15:30.372Z,20.48
2023-02-11T13:19:42.694Z,22.94
2023-02-11T13:23:51.149Z,21.38
2023-02-11T13:27:59.702Z,21.97
2023-02-11T13:32:09.650Z,20.54
2023-02-11T13:36:16.825Z,19.93
2023-02-11T13:40:18.824Z,20.99
2023-02-11T13:44:25.262Z,20.83
2023-02-11T13:48:36.108Z,21.76
2023-02-11T13:52:39.005Z,19.94
2023-02-11T13:56:44.142Z,20.99
2023-02-11T14:00:47.671Z,21.90
2023-02-11T14:05:23.854Z,21.56
2023-02-11T14:09:36.639Z,22.50
2023-02-11T14:13:58.819Z,21.76
2023-02-11T14:18:00.976Z,23.28
2023-02-11T14:22:13.661Z,23.38
2023-02-11T14:26:21.747Z,23.16
2023-02-11T14:30:46.140Z,23.53
2023-02-11T14:35:06.740Z,23.96
2023-02-11T14:39:08.912Z,24.17
2023-02-11T14:43:18.248Z,25.60
2023-02-11T14:47:23.513Z,24.77
2023-02-11T14:51:27.283Z,25.98
2023-02-11T14:55:34.144Z,24.99
2023-02-11T14:59:36.787Z,25.51
2023-02-11T15:03:40.308Z,25.91
2023-02-11T15:07:47.207Z,26.27
2023-02-11T15:11:50.711Z,26.94
2023-02-11T15:15:56.883Z,26.24
2023-02-11T15:20:00.904Z,27.91
2023-02-11T15:24:06.254Z,30.04
2023-02-11T15:28:14.854Z,29.54
2023-02-11T15:32:18.557Z,29.64
2023-02-11T15:36:28.003Z,29.51
2023-02-11T15:40:35.313Z,31.15
2023-02-11T15:44:38.258Z,30.48
2023-02-11T15:48:52.210Z,30.73
2023-02-11T15:53:01.410Z,30.61
2023-02-11T15:57:05.323Z,31.08
2023-02-11T16:01:08.279Z,31.42
2023-02-11T16:05:25.825Z,31.93
2023-02-11T16:09:33.178Z,32.27
2023-02-11T16:13:45.654Z,31.96
2023-02-11T16:17:49.686Z,31.96
2023-02-11T16:21:52.267Z,32.99
2023-02-11T16:25:58.598Z,33.51
2023-02-11T16:30:00.911Z,33.65
2023-02-11T16:34:03.240Z,34.37
2023-02-11T16:38:05.418Z,37.11
2023-02-11T16:42:08.125Z,38.05
2023-02-11T16:46:14.208Z,38.36
2023-02-11T16:50:21.677Z,39.79
2023-02-11T16:54:24.015Z,41.22
2023-02-11T16:58:26.215Z,40.88
2023-02-11T17:02:29.554Z,41.38
2023-02-11T17:06:32.927Z,42.26
2023-02-11T17:10:35.217Z,42.80
2023-02-11T17:14:37.207Z,42.90
2023-02-11T17:18:39.430Z,43.25
2023-02-11T17:22:41.693Z,44.21
2023-02-11T17:26:44.827Z,48.52
2023-02-11T17:30:46.900Z,49.29
2023-02-11T17:34:49.075Z,51.96
2023-02-11T17:38:51.958Z,53.58
2023-02-11T17:42:54.013Z,54.95
2023-02-11T17:46:57.133Z,54.83
2023-02-11T17:50:59.192Z,56.91
2023-02-11T17:55:01.389Z,58.30
2023-02-11T17:59:04.881Z,58.88
2023-02-11T18:03:06.887Z,60.16
2023-02-11T18:07:09.299Z,61.14
2023-02-11T18:11:12.467Z,62.18
2023-02-11T18:15:14.547Z,63.11
2023-02-11T18:19:16.619Z,64.25
2023-02-11T18:23:19.362Z,65.16
2023-02-11T18:27:22.120Z,65.46
2023-02-11T18:31:24.865Z,64.10
2023-02-11T18:35:28.072Z,65.39
2023-02-11T18:39:30.516Z,68.68
2023-02-11T18:43:33.839Z,71.33
2023-02-11T18:47:37.997Z,74.93
2023-02-11T18:51:40.258Z,81.46
2023-02-11T18:55:43.622Z,83.95
2023-02-11T18:59:45.748Z,86.55
2023-02-11T19:03:48.491Z,87.98
2023-02-11T19:07:50.576Z,83.29
2023-02-11T19:11:54.562Z,83.77
2023-02-11T19:15:56.770Z,86.53
2023-02-11T19:19:58.820Z,83.45
2023-02-11T19:24:02.409Z,80.60
2023-02-11T19:28:04.801Z,85.12
2023-02-11T19:32:07.122Z,89.15
2023-02-11T19:36:09.937Z,90.50
2023-02-11T19:40:12.478Z,92.13
2023-02-11T19:44:14.558Z,91.01
2023-02-11T19:48:16.682Z,95.38
2023-02-11T19:52:18.763Z,93.64
2023-02-11T19:56:21.109Z,94.57
2023-02-11T20:00:23.330Z,93.62
2023-02-11T20:04:26.559Z,96.18
2023-02-11T20:08:28.662Z,96.73
2023-02-11T20:12:30.749Z,96.61
2023-02-11T20:16:46.818Z,95.46
2023-02-11T20:20:50.232Z,96.15
2023-02-11T20:24:53.684Z,94.61
2023-02-11T20:28:56.469Z,94.93
2023-02-11T20:32:58.785Z,92.24
2023-02-11T20:37:00.983Z,90.52
2023-02-11T20:41:13.938Z,93.54
2023-02-11T20:45:16.091Z,100.00
2023-02-11T20:49:19.753Z,100.00
2023-02-11T20:53:22.588Z,100.00
2023-02-11T20:57:24.808Z,100.00
2023-02-11T21:01:28.528Z,100.00
2023-02-11T21:05:31.044Z,100.00
2023-02-11T21:09:33.888Z,100.00
2023-02-11T21:13:36.903Z,100.00
2023-02-11T21:17:38.902Z,100.00
2023-02-11T21:21:40.934Z,100.00
2023-02-11T21:25:43.125Z,100.00
2023-02-11T21:29:53.732Z,100.00
2023-02-11T21:33:59.551Z,100.00
2023-02-11T21:38:01.640Z,100.00
2023-02-11T21:42:03.808Z,98.89
2023-02-11T21:46:10.102Z,100.00
2023-02-11T21:50:12.212Z,99.75
2023-02-11T21:54:14.563Z,98.39
2023-02-11T21:58:17.039Z,100.00
2023-02-11T22:02:19.305Z,99.41
2023-02-11T22:06:31.113Z,100.00
2023-02-11T22:10:33.273Z,100.00
2023-02-11T22:14:35.861Z,100.00
2023-02-11T22:18:38.341Z,100.00
2023-02-11T22:22:40.461Z,100.00
2023-02-11T22:26:42.639Z,100.00
2023-02-11T22:30:44.896Z,100.00
2023-02-11T22:34:47.120Z,100.00
2023-02-11T22:38:49.440Z,100.00
2023-02-11T22:42:51.493Z,100.00
2023-02-11T22:46:53.885Z,100.00
2023-02-11T22:50:56.035Z,100.00
2023-02-11T22:55:00.579Z,100.00
2023-02-11T22:59:07.132Z,100.00
2023-02-11T23:03:12.501Z,100.00
2023-02-11T23:07:15.012Z,100.00
2023-02-11T23:11:19.188Z,100.00
2023-02-11T23:15:21.711Z,100.00
2023-02-11T23:19:24.135Z,100.00
2023-02-11T23:23:26.562Z,100.00
2023-02-11T23:27:29.338Z,100.00
2023-02-11T23:31:34.275Z,100.00
2023-02-11T23:35:36.765Z,100.00
2023-02-11T23:39:38.979Z,100.00
2023-02-11T23:43:41.230Z,100.00
2023-02-11T23:47:43.378Z,100.00
2023-02-11T23:51:45.638Z,100.00
2023-02-11T23:55:47.857Z,100.00
2023-02-11T23:59:50.717Z,100.00
